sensor_id;sensor_type;location;lat;lon;timestamp;pressure;altitude;pressure_sealevel;temperature;humidity
23166;BME280;11751;42.700;24.170;2022-07-30T00:01:03;94092.44;;;22.07;63.93
23166;BME280;11751;42.700;24.170;2022-07-30T00:03:29;94079.44;;;22.04;63.84
23166;BME280;11751;42.700;24.170;2022-07-30T00:05:55;94087.59;;;22.09;63.69
23166;BME280;11751;42.700;24.170;2022-07-30T00:08:21;94072.69;;;21.97;63.41
23166;BME280;11751;42.700;24.170;2022-07-30T00:10:47;94084.50;;;21.92;64.40
23166;BME280;11751;42.700;24.170;2022-07-30T00:13:12;94083.25;;;21.81;64.67
23166;BME280;11751;42.700;24.170;2022-07-30T00:15:38;94074.69;;;21.95;64.04
23166;BME280;11751;42.700;24.170;2022-07-30T00:18:03;94075.94;;;21.65;65.21
23166;BME280;11751;42.700;24.170;2022-07-30T00:20:29;94071.50;;;21.62;65.62
23166;BME280;11751;42.700;24.170;2022-07-30T00:22:55;94065.63;;;21.47;66.28
23166;BME280;11751;42.700;24.170;2022-07-30T00:25:20;94063.00;;;21.51;65.96
23166;BME280;11751;42.700;24.170;2022-07-30T00:27:45;94066.06;;;21.54;66.13
23166;BME280;11751;42.700;24.170;2022-07-30T00:30:12;94074.22;;;21.60;65.76
23166;BME280;11751;42.700;24.170;2022-07-30T00:32:38;94073.09;;;21.40;66.66
23166;BME280;11751;42.700;24.170;2022-07-30T00:35:04;94073.09;;;21.40;66.77
23166;BME280;11751;42.700;24.170;2022-07-30T00:37:29;94068.03;;;21.39;66.30
23166;BME280;11751;42.700;24.170;2022-07-30T00:39:55;94065.06;;;21.37;66.68
23166;BME280;11751;42.700;24.170;2022-07-30T00:42:20;94056.41;;;21.35;66.72
23166;BME280;11751;42.700;24.170;2022-07-30T00:44:52;94052.16;;;21.22;67.41
23166;BME280;11751;42.700;24.170;2022-07-30T00:47:18;94047.09;;;20.96;68.40
23166;BME280;11751;42.700;24.170;2022-07-30T00:49:43;94048.66;;;20.85;69.13
23166;BME280;11751;42.700;24.170;2022-07-30T00:52:09;94048.69;;;20.74;69.50
23166;BME280;11751;42.700;24.170;2022-07-30T00:54:34;94054.31;;;20.61;70.21
23166;BME280;11751;42.700;24.170;2022-07-30T00:57:00;94046.00;;;20.64;69.97
23166;BME280;11751;42.700;24.170;2022-07-30T00:59:25;94045.94;;;20.76;69.84
23166;BME280;11751;42.700;24.170;2022-07-30T01:01:54;94044.75;;;20.67;70.00
23166;BME280;11751;42.700;24.170;2022-07-30T01:04:20;94048.91;;;20.42;70.83
23166;BME280;11751;42.700;24.170;2022-07-30T01:06:45;94048.19;;;20.41;71.48
23166;BME280;11751;42.700;24.170;2022-07-30T01:09:11;94046.00;;;20.40;71.40
23166;BME280;11751;42.700;24.170;2022-07-30T01:11:38;94051.31;;;20.34;71.09
23166;BME280;11751;42.700;24.170;2022-07-30T01:14:05;94046.50;;;20.36;71.28
23166;BME280;11751;42.700;24.170;2022-07-30T01:16:32;94048.66;;;20.49;70.78
23166;BME280;11751;42.700;24.170;2022-07-30T01:18:58;94042.13;;;20.47;71.17
23166;BME280;11751;42.700;24.170;2022-07-30T01:21:47;94048.19;;;20.41;70.98
23166;BME280;11751;42.700;24.170;2022-07-30T01:24:42;94051.03;;;20.41;71.29
23166;BME280;11751;42.700;24.170;2022-07-30T01:27:10;94047.34;;;20.39;71.47
23166;BME280;11751;42.700;24.170;2022-07-30T01:29:37;94044.13;;;20.33;71.84
23166;BME280;11751;42.700;24.170;2022-07-30T01:32:04;94037.97;;;20.25;72.09
23166;BME280;11751;42.700;24.170;2022-07-30T01:34:33;94039.84;;;20.20;72.63
23166;BME280;11751;42.700;24.170;2022-07-30T01:37:01;94034.25;;;20.34;71.99
23166;BME280;11751;42.700;24.170;2022-07-30T01:39:28;94038.72;;;20.25;72.29
23166;BME280;11751;42.700;24.170;2022-07-30T01:41:55;94038.44;;;20.33;72.02
23166;BME280;11751;42.700;24.170;2022-07-30T01:44:22;94039.78;;;20.43;71.44
23166;BME280;11751;42.700;24.170;2022-07-30T01:46:50;94035.84;;;20.37;72.04
23166;BME280;11751;42.700;24.170;2022-07-30T01:49:18;94033.91;;;20.53;71.19
23166;BME280;11751;42.700;24.170;2022-07-30T01:51:44;94036.69;;;20.51;70.41
23166;BME280;11751;42.700;24.170;2022-07-30T01:54:12;94028.72;;;20.61;71.19
23166;BME280;11751;42.700;24.170;2022-07-30T01:56:40;94034.50;;;20.63;71.08
23166;BME280;11751;42.700;24.170;2022-07-30T01:59:07;94033.13;;;20.63;71.76
23166;BME280;11751;42.700;24.170;2022-07-30T02:01:34;94033.78;;;20.62;71.71
23166;BME280;11751;42.700;24.170;2022-07-30T02:04:01;94029.00;;;20.53;72.37
23166;BME280;11751;42.700;24.170;2022-07-30T02:06:38;94023.69;;;20.48;72.11
23166;BME280;11751;42.700;24.170;2022-07-30T02:09:05;94034.03;;;20.55;71.62
23166;BME280;11751;42.700;24.170;2022-07-30T02:11:38;94031.19;;;20.55;71.07
23166;BME280;11751;42.700;24.170;2022-07-30T02:14:27;94032.69;;;20.56;71.20
23166;BME280;11751;42.700;24.170;2022-07-30T02:16:55;94028.47;;;20.57;71.88
23166;BME280;11751;42.700;24.170;2022-07-30T02:19:25;94031.19;;;20.55;72.03
23166;BME280;11751;42.700;24.170;2022-07-30T02:22:16;94030.97;;;20.51;71.99
23166;BME280;11751;42.700;24.170;2022-07-30T02:24:43;94028.78;;;20.38;72.46
23166;BME280;11751;42.700;24.170;2022-07-30T02:27:14;94023.63;;;20.34;72.62
23166;BME280;11751;42.700;24.170;2022-07-30T02:29:41;94029.88;;;20.08;73.73
23166;BME280;11751;42.700;24.170;2022-07-30T02:32:09;94033.81;;;20.03;73.81
23166;BME280;11751;42.700;24.170;2022-07-30T02:34:38;94026.19;;;19.71;74.76
23166;BME280;11751;42.700;24.170;2022-07-30T02:37:06;94024.47;;;19.66;75.31
23166;BME280;11751;42.700;24.170;2022-07-30T02:39:33;94024.84;;;19.61;75.86
23166;BME280;11751;42.700;24.170;2022-07-30T02:42:01;94016.09;;;19.57;75.69
23166;BME280;11751;42.700;24.170;2022-07-30T02:44:28;94024.59;;;19.45;76.57
23166;BME280;11751;42.700;24.170;2022-07-30T02:46:55;94015.59;;;19.26;77.94
23166;BME280;11751;42.700;24.170;2022-07-30T02:49:23;94016.28;;;19.03;78.79
23166;BME280;11751;42.700;24.170;2022-07-30T02:51:48;94008.13;;;19.09;77.91
23166;BME280;11751;42.700;24.170;2022-07-30T02:54:17;94015.09;;;19.29;77.42
23166;BME280;11751;42.700;24.170;2022-07-30T02:56:45;94015.22;;;19.31;77.34
23166;BME280;11751;42.700;24.170;2022-07-30T02:59:12;94014.47;;;19.42;77.11
23166;BME280;11751;42.700;24.170;2022-07-30T03:01:39;94018.31;;;19.47;76.81
23166;BME280;11751;42.700;24.170;2022-07-30T03:04:06;94009.41;;;19.52;76.50
23166;BME280;11751;42.700;24.170;2022-07-30T03:06:33;94011.38;;;19.61;76.22
23166;BME280;11751;42.700;24.170;2022-07-30T03:09:01;94017.81;;;19.50;76.55
23166;BME280;11751;42.700;24.170;2022-07-30T03:11:28;94011.13;;;19.57;76.68
23166;BME280;11751;42.700;24.170;2022-07-30T03:13:55;94007.91;;;19.63;76.12
23166;BME280;11751;42.700;24.170;2022-07-30T03:16:22;94017.69;;;19.71;75.72
23166;BME280;11751;42.700;24.170;2022-07-30T03:18:49;94012.09;;;19.73;75.67
23166;BME280;11751;42.700;24.170;2022-07-30T03:21:18;94013.34;;;19.70;76.19
23166;BME280;11751;42.700;24.170;2022-07-30T03:23:45;94012.09;;;19.73;75.75
23166;BME280;11751;42.700;24.170;2022-07-30T03:26:12;94014.84;;;19.71;76.35
23166;BME280;11751;42.700;24.170;2022-07-30T03:28:39;94017.78;;;19.73;75.75
23166;BME280;11751;42.700;24.170;2022-07-30T03:31:06;94022.25;;;19.65;75.83
23166;BME280;11751;42.700;24.170;2022-07-30T03:33:33;94010.25;;;19.66;76.54
23166;BME280;11751;42.700;24.170;2022-07-30T03:36:00;94021.03;;;19.68;76.44
23166;BME280;11751;42.700;24.170;2022-07-30T03:38:26;94017.28;;;19.65;76.44
23166;BME280;11751;42.700;24.170;2022-07-30T03:40:53;94013.22;;;19.68;76.55
23166;BME280;11751;42.700;24.170;2022-07-30T03:43:19;94016.56;;;19.65;76.24
23166;BME280;11751;42.700;24.170;2022-07-30T03:45:46;94011.63;;;19.65;76.65
23166;BME280;11751;42.700;24.170;2022-07-30T03:48:12;94016.31;;;19.72;76.24
23166;BME280;11751;42.700;24.170;2022-07-30T03:50:40;94023.47;;;19.73;76.53
23166;BME280;11751;42.700;24.170;2022-07-30T03:53:07;94021.75;;;19.68;76.96
23166;BME280;11751;42.700;24.170;2022-07-30T03:55:34;94022.59;;;19.82;75.71
23166;BME280;11751;42.700;24.170;2022-07-30T03:58:00;94011.13;;;19.80;76.07
23166;BME280;11751;42.700;24.170;2022-07-30T04:00:26;94012.06;;;20.07;75.83
23166;BME280;11751;42.700;24.170;2022-07-30T04:02:52;94012.25;;;20.23;74.77
23166;BME280;11751;42.700;24.170;2022-07-30T04:05:18;94026.75;;;20.52;73.57
23166;BME280;11751;42.700;24.170;2022-07-30T04:07:43;94019.59;;;21.00;72.09
23166;BME280;11751;42.700;24.170;2022-07-30T04:10:09;94019.59;;;21.39;70.04
23166;BME280;11751;42.700;24.170;2022-07-30T04:12:35;94026.66;;;21.76;68.31
23166;BME280;11751;42.700;24.170;2022-07-30T04:15:00;94020.50;;;22.22;66.85
23166;BME280;11751;42.700;24.170;2022-07-30T04:17:28;94022.66;;;22.63;65.40
23166;BME280;11751;42.700;24.170;2022-07-30T04:20:00;94015.75;;;22.97;63.92
23166;BME280;11751;42.700;24.170;2022-07-30T04:22:30;94017.88;;;23.26;63.00
23166;BME280;11751;42.700;24.170;2022-07-30T04:24:57;94013.09;;;23.61;61.16
23166;BME280;11751;42.700;24.170;2022-07-30T04:27:23;94015.34;;;23.78;61.08
23166;BME280;11751;42.700;24.170;2022-07-30T04:29:53;94016.53;;;23.73;60.26
23166;BME280;11751;42.700;24.170;2022-07-30T04:32:19;94007.56;;;23.96;59.53
23166;BME280;11751;42.700;24.170;2022-07-30T04:34:47;94013.41;;;24.46;58.45
23166;BME280;11751;42.700;24.170;2022-07-30T04:37:16;94015.16;;;25.05;57.16
23166;BME280;11751;42.700;24.170;2022-07-30T04:39:41;94016.75;;;25.62;55.40
23166;BME280;11751;42.700;24.170;2022-07-30T04:42:07;94013.78;;;25.97;53.94
23166;BME280;11751;42.700;24.170;2022-07-30T04:44:33;94020.13;;;26.32;53.36
23166;BME280;11751;42.700;24.170;2022-07-30T04:46:59;94015.00;;;26.70;52.78
23166;BME280;11751;42.700;24.170;2022-07-30T04:49:25;94022.69;;;27.04;51.58
23166;BME280;11751;42.700;24.170;2022-07-30T04:51:52;94008.94;;;27.45;50.16
23166;BME280;11751;42.700;24.170;2022-07-30T04:54:19;94006.53;;;27.82;50.21
23166;BME280;11751;42.700;24.170;2022-07-30T04:56:46;94007.72;;;27.99;49.11
23166;BME280;11751;42.700;24.170;2022-07-30T04:59:14;94011.69;;;28.11;48.94
23166;BME280;11751;42.700;24.170;2022-07-30T05:01:44;93992.34;;;28.39;47.99
23166;BME280;11751;42.700;24.170;2022-07-30T05:04:11;94008.66;;;28.31;48.17
23166;BME280;11751;42.700;24.170;2022-07-30T05:06:39;93999.69;;;28.44;47.30
23166;BME280;11751;42.700;24.170;2022-07-30T05:09:04;94009.69;;;27.92;48.57
23166;BME280;11751;42.700;24.170;2022-07-30T05:11:30;94012.13;;;27.55;49.17
23166;BME280;11751;42.700;24.170;2022-07-30T05:13:56;94008.19;;;27.45;49.60
23166;BME280;11751;42.700;24.170;2022-07-30T05:16:21;94008.06;;;27.41;50.81
23166;BME280;11751;42.700;24.170;2022-07-30T05:18:46;94002.81;;;27.57;49.33
23166;BME280;11751;42.700;24.170;2022-07-30T05:21:12;94004.38;;;27.83;49.23
23166;BME280;11751;42.700;24.170;2022-07-30T05:23:37;94013.75;;;27.83;48.09
23166;BME280;11751;42.700;24.170;2022-07-30T05:26:03;94008.09;;;27.87;49.07
23166;BME280;11751;42.700;24.170;2022-07-30T05:28:28;94014.66;;;28.15;48.08
23166;BME280;11751;42.700;24.170;2022-07-30T05:30:54;94013.31;;;28.18;47.97
23166;BME280;11751;42.700;24.170;2022-07-30T05:33:21;94015.28;;;28.35;47.93
23166;BME280;11751;42.700;24.170;2022-07-30T05:35:47;94017.88;;;28.25;47.52
23166;BME280;11751;42.700;24.170;2022-07-30T05:38:14;94017.50;;;28.64;46.68
23166;BME280;11751;42.700;24.170;2022-07-30T05:40:39;94023.13;;;28.83;46.35
23166;BME280;11751;42.700;24.170;2022-07-30T05:43:05;94020.25;;;28.83;46.53
23166;BME280;11751;42.700;24.170;2022-07-30T05:45:30;94016.91;;;28.67;46.08
23166;BME280;11751;42.700;24.170;2022-07-30T05:47:56;94013.13;;;28.61;46.85
23166;BME280;11751;42.700;24.170;2022-07-30T05:50:22;94016.28;;;28.71;46.32
23166;BME280;11751;42.700;24.170;2022-07-30T05:52:48;94023.59;;;28.76;46.66
23166;BME280;11751;42.700;24.170;2022-07-30T05:55:13;94018.03;;;28.82;46.13
23166;BME280;11751;42.700;24.170;2022-07-30T05:57:39;94020.56;;;28.70;47.89
23166;BME280;11751;42.700;24.170;2022-07-30T06:00:08;94016.91;;;28.67;47.50
23166;BME280;11751;42.700;24.170;2022-07-30T06:02:34;94017.69;;;28.70;46.84
23166;BME280;11751;42.700;24.170;2022-07-30T06:04:59;94010.66;;;28.24;47.66
23166;BME280;11751;42.700;24.170;2022-07-30T06:07:25;94010.88;;;28.32;47.97
23166;BME280;11751;42.700;24.170;2022-07-30T06:09:50;94016.59;;;28.30;48.17
23166;BME280;11751;42.700;24.170;2022-07-30T06:12:16;94012.97;;;28.06;48.44
23166;BME280;11751;42.700;24.170;2022-07-30T06:14:42;94009.28;;;28.27;48.07
23166;BME280;11751;42.700;24.170;2022-07-30T06:17:07;94011.25;;;28.46;46.21
23166;BME280;11751;42.700;24.170;2022-07-30T06:19:35;94001.59;;;28.61;45.14
23166;BME280;11751;42.700;24.170;2022-07-30T06:22:01;94003.84;;;28.90;45.38
23166;BME280;11751;42.700;24.170;2022-07-30T06:24:26;94003.44;;;28.49;47.56
23166;BME280;11751;42.700;24.170;2022-07-30T06:26:52;93993.81;;;28.40;46.89
23166;BME280;11751;42.700;24.170;2022-07-30T06:29:17;93996.44;;;28.07;48.76
23166;BME280;11751;42.700;24.170;2022-07-30T06:31:42;94001.59;;;28.10;48.51
23166;BME280;11751;42.700;24.170;2022-07-30T06:34:08;93995.88;;;28.12;46.81
23166;BME280;11751;42.700;24.170;2022-07-30T06:36:33;93995.16;;;28.37;45.89
23166;BME280;11751;42.700;24.170;2022-07-30T06:38:59;93996.47;;;28.58;45.47
23166;BME280;11751;42.700;24.170;2022-07-30T06:41:24;93994.00;;;27.97;45.70
23166;BME280;11751;42.700;24.170;2022-07-30T06:43:50;93996.19;;;28.22;46.67
23166;BME280;11751;42.700;24.170;2022-07-30T06:46:16;93983.78;;;28.41;45.74
23166;BME280;11751;42.700;24.170;2022-07-30T06:48:41;93987.53;;;28.75;45.09
23166;BME280;11751;42.700;24.170;2022-07-30T06:51:07;93989.38;;;28.88;44.44
23166;BME280;11751;42.700;24.170;2022-07-30T06:53:33;93991.78;;;28.97;45.74
23166;BME280;11751;42.700;24.170;2022-07-30T06:55:58;93984.88;;;29.10;44.96
23166;BME280;11751;42.700;24.170;2022-07-30T06:58:24;93984.75;;;29.04;44.20
23166;BME280;11751;42.700;24.170;2022-07-30T07:00:49;93980.97;;;28.98;45.91
23166;BME280;11751;42.700;24.170;2022-07-30T07:03:15;93985.75;;;29.44;46.17
23166;BME280;11751;42.700;24.170;2022-07-30T07:05:40;93983.81;;;29.54;45.13
23166;BME280;11751;42.700;24.170;2022-07-30T07:08:06;93976.69;;;29.57;44.53
23166;BME280;11751;42.700;24.170;2022-07-30T07:10:31;93971.25;;;29.73;44.11
23166;BME280;11751;42.700;24.170;2022-07-30T07:12:57;93971.72;;;29.93;43.00
23166;BME280;11751;42.700;24.170;2022-07-30T07:15:24;93968.75;;;29.91;41.83
23166;BME280;11751;42.700;24.170;2022-07-30T07:17:50;93972.41;;;30.25;42.65
23166;BME280;11751;42.700;24.170;2022-07-30T07:20:15;93968.09;;;30.26;43.01
23166;BME280;11751;42.700;24.170;2022-07-30T07:22:41;93975.59;;;30.39;41.97
23166;BME280;11751;42.700;24.170;2022-07-30T07:25:06;93972.91;;;30.14;43.15
23166;BME280;11751;42.700;24.170;2022-07-30T07:27:32;93973.31;;;30.36;42.21
23166;BME280;11751;42.700;24.170;2022-07-30T07:29:58;93976.22;;;30.36;42.15
23166;BME280;11751;42.700;24.170;2022-07-30T07:32:23;93977.28;;;30.52;40.13
23166;BME280;11751;42.700;24.170;2022-07-30T07:34:49;93974.13;;;30.38;42.09
23166;BME280;11751;42.700;24.170;2022-07-30T07:37:15;93975.91;;;30.55;42.33
23166;BME280;11751;42.700;24.170;2022-07-30T07:39:40;93971.75;;;30.64;41.83
23166;BME280;11751;42.700;24.170;2022-07-30T07:42:06;93966.06;;;30.68;40.92
23166;BME280;11751;42.700;24.170;2022-07-30T07:44:32;93970.78;;;30.91;40.37
23166;BME280;11751;42.700;24.170;2022-07-30T07:46:57;93965.19;;;31.01;40.28
23166;BME280;11751;42.700;24.170;2022-07-30T07:49:23;93965.03;;;30.93;39.41
23166;BME280;11751;42.700;24.170;2022-07-30T07:51:48;93971.13;;;31.07;38.80
23166;BME280;11751;42.700;24.170;2022-07-30T07:54:14;93970.97;;;31.42;39.08
23166;BME280;11751;42.700;24.170;2022-07-30T07:56:40;93969.88;;;31.65;39.32
23166;BME280;11751;42.700;24.170;2022-07-30T07:59:05;93976.56;;;31.75;38.34
23166;BME280;11751;42.700;24.170;2022-07-30T08:01:31;93962.25;;;31.87;38.67
23166;BME280;11751;42.700;24.170;2022-07-30T08:03:56;93968.31;;;32.05;39.10
23166;BME280;11751;42.700;24.170;2022-07-30T08:06:21;93964.16;;;32.20;38.79
23166;BME280;11751;42.700;24.170;2022-07-30T08:08:47;93971.19;;;32.05;38.25
23166;BME280;11751;42.700;24.170;2022-07-30T08:11:13;93973.56;;;32.19;36.72
23166;BME280;11751;42.700;24.170;2022-07-30T08:13:38;93978.69;;;32.22;37.01
23166;BME280;11751;42.700;24.170;2022-07-30T08:16:04;93966.00;;;32.51;36.97
23166;BME280;11751;42.700;24.170;2022-07-30T08:18:29;93957.56;;;32.71;35.55
23166;BME280;11751;42.700;24.170;2022-07-30T08:20:55;93954.41;;;32.51;35.52
23166;BME280;11751;42.700;24.170;2022-07-30T08:23:20;93955.88;;;32.54;35.54
23166;BME280;11751;42.700;24.170;2022-07-30T08:25:47;93953.38;;;32.90;34.24
23166;BME280;11751;42.700;24.170;2022-07-30T08:28:13;93946.28;;;33.03;35.16
23166;BME280;11751;42.700;24.170;2022-07-30T08:30:38;93936.28;;;33.19;34.91
23166;BME280;11751;42.700;24.170;2022-07-30T08:33:04;93936.53;;;32.72;34.42
23166;BME280;11751;42.700;24.170;2022-07-30T08:35:29;93942.34;;;32.13;35.59
23166;BME280;11751;42.700;24.170;2022-07-30T08:37:54;93936.91;;;32.43;36.41
23166;BME280;11751;42.700;24.170;2022-07-30T08:40:24;93943.00;;;32.67;35.13
23166;BME280;11751;42.700;24.170;2022-07-30T08:42:51;93937.41;;;32.23;35.22
23166;BME280;11751;42.700;24.170;2022-07-30T08:45:17;93936.41;;;32.03;35.64
23166;BME280;11751;42.700;24.170;2022-07-30T08:47:44;93942.03;;;32.46;36.65
23166;BME280;11751;42.700;24.170;2022-07-30T08:50:11;93937.34;;;32.81;35.40
23166;BME280;11751;42.700;24.170;2022-07-30T08:52:37;93927.66;;;33.29;35.09
23166;BME280;11751;42.700;24.170;2022-07-30T08:55:04;93931.75;;;33.01;34.31
23166;BME280;11751;42.700;24.170;2022-07-30T08:57:31;93920.44;;;33.36;35.03
23166;BME280;11751;42.700;24.170;2022-07-30T08:59:58;93933.34;;;33.14;35.36
23166;BME280;11751;42.700;24.170;2022-07-30T09:02:24;93921.84;;;33.29;35.12
23166;BME280;11751;42.700;24.170;2022-07-30T09:04:49;93924.78;;;33.33;35.51
23166;BME280;11751;42.700;24.170;2022-07-30T09:07:15;93918.03;;;32.40;35.92
23166;BME280;11751;42.700;24.170;2022-07-30T09:09:40;93919.63;;;32.53;36.07
23166;BME280;11751;42.700;24.170;2022-07-30T09:15:28;93911.03;;;32.59;35.78
23166;BME280;11751;42.700;24.170;2022-07-30T09:18:01;93915.56;;;32.78;35.98
23166;BME280;11751;42.700;24.170;2022-07-30T09:20:32;93912.25;;;32.40;36.33
23166;BME280;11751;42.700;24.170;2022-07-30T09:23:00;93914.09;;;32.75;36.06
23166;BME280;11751;42.700;24.170;2022-07-30T09:27:57;93900.03;;;33.22;36.62
23166;BME280;11751;42.700;24.170;2022-07-30T09:30:23;93895.13;;;33.47;35.08
23166;BME280;11751;42.700;24.170;2022-07-30T09:32:54;93887.13;;;33.45;36.97
23166;BME280;11751;42.700;24.170;2022-07-30T09:35:22;93890.31;;;33.87;35.40
23166;BME280;11751;42.700;24.170;2022-07-30T09:37:57;93870.81;;;34.09;35.04
23166;BME280;11751;42.700;24.170;2022-07-30T09:40:24;93883.91;;;34.18;34.64
23166;BME280;11751;42.700;24.170;2022-07-30T09:43:04;93877.41;;;34.20;34.61
23166;BME280;11751;42.700;24.170;2022-07-30T09:45:30;93874.50;;;34.20;33.56
23166;BME280;11751;42.700;24.170;2022-07-30T09:47:56;93865.00;;;34.11;33.55
23166;BME280;11751;42.700;24.170;2022-07-30T09:50:21;93869.81;;;33.63;35.05
23166;BME280;11751;42.700;24.170;2022-07-30T09:52:48;93864.19;;;33.97;34.89
23166;BME280;11751;42.700;24.170;2022-07-30T09:55:28;93862.84;;;34.16;33.87
23166;BME280;11751;42.700;24.170;2022-07-30T09:57:57;93868.66;;;34.10;33.86
23166;BME280;11751;42.700;24.170;2022-07-30T10:00:25;93864.28;;;34.09;33.57
23166;BME280;11751;42.700;24.170;2022-07-30T10:02:51;93854.09;;;34.08;34.06
23166;BME280;11751;42.700;24.170;2022-07-30T10:05:18;93858.47;;;34.13;34.74
23166;BME280;11751;42.700;24.170;2022-07-30T10:07:48;93859.81;;;33.94;34.38
23166;BME280;11751;42.700;24.170;2022-07-30T10:10:16;93854.81;;;34.08;33.85
23166;BME280;11751;42.700;24.170;2022-07-30T10:12:44;93851.19;;;34.08;33.43
23166;BME280;11751;42.700;24.170;2022-07-30T10:15:10;93851.97;;;34.24;32.64
23166;BME280;11751;42.700;24.170;2022-07-30T10:17:37;93844.00;;;34.43;32.86
23166;BME280;11751;42.700;24.170;2022-07-30T10:20:11;93849.16;;;34.54;32.81
23166;BME280;11751;42.700;24.170;2022-07-30T10:22:37;93851.25;;;34.32;32.86
23166;BME280;11751;42.700;24.170;2022-07-30T10:25:03;93842.53;;;34.34;32.79
23166;BME280;11751;42.700;24.170;2022-07-30T10:27:30;93845.31;;;34.00;32.51
23166;BME280;11751;42.700;24.170;2022-07-30T10:29:56;93829.50;;;34.47;32.35
23166;BME280;11751;42.700;24.170;2022-07-30T10:32:24;93838.22;;;34.45;32.64
23166;BME280;11751;42.700;24.170;2022-07-30T10:34:50;93829.56;;;34.79;32.50
23166;BME280;11751;42.700;24.170;2022-07-30T10:37:16;93836.09;;;34.81;33.64
23166;BME280;11751;42.700;24.170;2022-07-30T10:39:48;93828.13;;;35.25;32.92
23166;BME280;11751;42.700;24.170;2022-07-30T10:42:41;93828.09;;;35.37;31.28
23166;BME280;11751;42.700;24.170;2022-07-30T10:47:53;93826.63;;;35.48;30.73
23166;BME280;11751;42.700;24.170;2022-07-30T10:50:21;93829.53;;;35.68;31.40
23166;BME280;11751;42.700;24.170;2022-07-30T10:52:52;93816.25;;;36.11;30.72
23166;BME280;11751;42.700;24.170;2022-07-30T10:55:24;93821.38;;;36.08;30.21
23166;BME280;11751;42.700;24.170;2022-07-30T11:00:22;93813.38;;;35.93;28.77
23166;BME280;11751;42.700;24.170;2022-07-30T11:03:09;93807.75;;;35.29;30.80
23166;BME280;11751;42.700;24.170;2022-07-30T11:05:35;93803.38;;;35.18;30.32
23166;BME280;11751;42.700;24.170;2022-07-30T11:08:30;93801.81;;;35.69;32.12
23166;BME280;11751;42.700;24.170;2022-07-30T11:10:56;93795.28;;;35.73;31.04
23166;BME280;11751;42.700;24.170;2022-07-30T11:19:13;93787.28;;;35.67;30.51
23166;BME280;11751;42.700;24.170;2022-07-30T11:22:21;93774.88;;;35.67;30.21
23166;BME280;11751;42.700;24.170;2022-07-30T11:24:48;93769.75;;;35.69;29.23
23166;BME280;11751;42.700;24.170;2022-07-30T11:27:42;93760.94;;;35.89;29.54
23166;BME280;11751;42.700;24.170;2022-07-30T11:32:55;93766.50;;;36.41;28.95
23166;BME280;11751;42.700;24.170;2022-07-30T11:35:40;93765.91;;;36.20;29.34
23166;BME280;11751;42.700;24.170;2022-07-30T11:43:21;93764.78;;;35.16;32.06
23166;BME280;11751;42.700;24.170;2022-07-30T11:46:10;93758.19;;;35.41;30.67
23166;BME280;11751;42.700;24.170;2022-07-30T11:48:54;93750.06;;;35.74;32.06
23166;BME280;11751;42.700;24.170;2022-07-30T11:51:20;93750.13;;;35.66;30.94
23166;BME280;11751;42.700;24.170;2022-07-30T11:54:06;93742.13;;;35.68;31.31
23166;BME280;11751;42.700;24.170;2022-07-30T11:56:32;93734.88;;;35.55;30.63
23166;BME280;11751;42.700;24.170;2022-07-30T12:01:27;93727.38;;;36.02;29.34
23166;BME280;11751;42.700;24.170;2022-07-30T12:03:55;93720.09;;;36.03;31.13
23166;BME280;11751;42.700;24.170;2022-07-30T12:06:21;93727.09;;;36.48;29.41
23166;BME280;11751;42.700;24.170;2022-07-30T12:08:50;93716.00;;;36.68;28.75
23166;BME280;11751;42.700;24.170;2022-07-30T12:11:17;93712.00;;;37.07;29.02
23166;BME280;11751;42.700;24.170;2022-07-30T12:13:43;93713.19;;;37.32;27.88
23166;BME280;11751;42.700;24.170;2022-07-30T12:16:19;93716.13;;;37.34;29.28
23166;BME280;11751;42.700;24.170;2022-07-30T12:18:45;93714.44;;;37.53;28.98
23166;BME280;11751;42.700;24.170;2022-07-30T12:21:11;93717.53;;;37.37;27.90
23166;BME280;11751;42.700;24.170;2022-07-30T12:23:39;93711.75;;;37.33;27.37
23166;BME280;11751;42.700;24.170;2022-07-30T12:26:08;93713.34;;;37.16;28.92
23166;BME280;11751;42.700;24.170;2022-07-30T12:28:34;93701.84;;;37.00;28.66
23166;BME280;11751;42.700;24.170;2022-07-30T12:31:01;93704.25;;;36.74;29.24
23166;BME280;11751;42.700;24.170;2022-07-30T12:33:28;93685.75;;;37.05;27.93
23166;BME280;11751;42.700;24.170;2022-07-30T12:35:56;93695.16;;;37.14;29.26
23166;BME280;11751;42.700;24.170;2022-07-30T12:38:23;93684.31;;;37.04;28.69
23166;BME280;11751;42.700;24.170;2022-07-30T12:40:52;93688.63;;;37.07;28.80
23166;BME280;11751;42.700;24.170;2022-07-30T12:43:53;93688.53;;;37.17;27.36
23166;BME280;11751;42.700;24.170;2022-07-30T12:48:54;93681.69;;;36.69;28.64
23166;BME280;11751;42.700;24.170;2022-07-30T12:51:22;93669.91;;;36.82;27.52
23166;BME280;11751;42.700;24.170;2022-07-30T12:53:48;93660.13;;;36.32;28.74
23166;BME280;11751;42.700;24.170;2022-07-30T12:56:22;93659.81;;;36.70;29.96
23166;BME280;11751;42.700;24.170;2022-07-30T12:58:49;93658.44;;;36.59;29.79
23166;BME280;11751;42.700;24.170;2022-07-30T13:01:15;93655.59;;;36.53;29.51
23166;BME280;11751;42.700;24.170;2022-07-30T13:03:42;93642.34;;;36.64;30.08
23166;BME280;11751;42.700;24.170;2022-07-30T13:06:20;93643.34;;;37.10;28.23
23166;BME280;11751;42.700;24.170;2022-07-30T13:11:23;93637.47;;;37.14;28.09
23166;BME280;11751;42.700;24.170;2022-07-30T13:13:49;93637.41;;;37.18;28.01
23166;BME280;11751;42.700;24.170;2022-07-30T13:16:16;93640.19;;;37.32;28.49
23166;BME280;11751;42.700;24.170;2022-07-30T13:18:42;93629.84;;;37.43;27.41
23166;BME280;11751;42.700;24.170;2022-07-30T13:21:08;93622.59;;;37.38;27.67
23166;BME280;11751;42.700;24.170;2022-07-30T13:23:38;93634.59;;;37.10;27.37
23166;BME280;11751;42.700;24.170;2022-07-30T13:26:06;93622.34;;;36.96;27.49